Time;durP1;ratioP1;P1;durP2;ratioP2;P2;SDS_P1;SDS_P2;PMS_P1;PMS_P2;Temp;Humidity;BMP_temperature;BMP_pressure;BME280_temperature;BME280_humidity;BME280_pressure;Samples;Min_cycle;Max_cycle;Signal;HPM_P1;HPM_P2
2022/06/06 00:01:56;;;;;;;3.78;3.13;;;21.00;62.40;;;;;;5104334;28;20124;-73
2022/06/06 00:04:24;;;;;;;3.67;3.38;;;21.00;58.90;;;;;;5099603;28;20080;-73
2022/06/06 00:06:52;;;;;;;3.90;3.50;;;20.50;61.90;;;;;;5091046;28;20056;-74
2022/06/06 00:09:19;;;;;;;3.67;3.28;;;20.90;62.50;;;;;;5091685;27;20079;-73
2022/06/06 00:11:45;;;;;;;3.83;3.22;;;21.00;58.90;;;;;;5118186;27;20064;-73
2022/06/06 00:14:13;;;;;;;3.67;3.30;;;21.10;58.90;;;;;;5110760;28;20516;-73
2022/06/06 00:16:41;;;;;;;3.50;3.20;;;21.20;58.90;;;;;;5111352;28;20119;-73
2022/06/06 00:19:08;;;;;;;3.78;3.17;;;21.00;62.50;;;;;;5110798;28;20058;-73
2022/06/06 00:21:34;;;;;;;3.42;3.13;;;20.90;58.80;;;;;;5111266;28;20078;-74
2022/06/06 00:24:01;;;;;;;3.63;3.20;;;21.00;58.90;;;;;;5110821;28;20647;-73
2022/06/06 00:26:29;;;;;;;4.22;3.17;;;19.80;61.40;;;;;;5093451;28;20123;-73
2022/06/06 00:28:56;;;;;;;3.80;3.20;;;20.90;58.80;;;;;;5090721;28;20139;-73
2022/06/06 00:36:54;;;;;;;3.10;2.80;;;20.90;58.80;;;;;;5090103;28;20060;-74
2022/06/06 00:39:20;;;;;;;3.70;3.38;;;20.90;58.80;;;;;;5099223;28;20769;-73
2022/06/06 00:41:50;;;;;;;3.40;3.10;;;21.00;62.20;;;;;;5111550;28;20114;-73
2022/06/06 00:44:18;;;;;;;3.20;2.90;;;20.90;58.80;;;;;;5110553;28;20524;-73
2022/06/06 00:46:47;;;;;;;3.78;3.35;;;20.90;58.80;;;;;;5110571;28;20094;-73
2022/06/06 00:49:23;;;;;;;3.35;3.05;;;20.90;62.40;;;;;;5110707;28;20142;-73
2022/06/06 00:51:49;;;;;;;3.40;3.08;;;20.90;58.80;;;;;;5110186;28;20040;-73
2022/06/06 00:54:16;;;;;;;3.40;3.10;;;20.80;62.30;;;;;;5109924;28;20157;-73
2022/06/06 00:56:45;;;;;;;3.10;2.80;;;20.90;58.80;;;;;;5094395;28;20100;-73
2022/06/06 00:59:13;;;;;;;3.33;3.03;;;20.90;58.80;;;;;;5089103;28;20448;-73
2022/06/06 01:01:40;;;;;;;3.63;3.33;;;21.30;62.40;;;;;;5095673;28;20071;-73
2022/06/06 01:04:08;;;;;;;3.35;3.05;;;20.80;58.70;;;;;;5111025;28;20162;-73
2022/06/06 01:06:39;;;;;;;2.85;2.65;;;20.90;58.70;;;;;;5110012;28;20140;-74
2022/06/06 01:09:06;;;;;;;3.13;2.83;;;20.90;58.70;;;;;;5110083;28;20071;-73
2022/06/06 01:11:35;;;;;;;3.00;2.70;;;21.80;62.20;;;;;;5129344;27;20138;-73
2022/06/06 01:14:02;;;;;;;3.65;2.95;;;20.10;61.70;;;;;;5089562;28;20044;-73
2022/06/06 01:16:38;;;;;;;3.13;2.83;;;20.90;62.50;;;;;;5089246;28;20109;-74
2022/06/06 01:19:56;;;;;;;2.75;2.55;;;20.80;58.60;;;;;;5089573;28;20080;-73
2022/06/06 01:23:09;;;;;;;3.22;2.92;;;21.00;62.30;;;;;;5089534;28;20091;-73
2022/06/06 01:26:07;;;;;;;3.20;2.90;;;20.80;58.60;;;;;;5089100;28;20062;-73
2022/06/06 01:28:50;;;;;;;2.95;2.70;;;20.70;62.20;;;;;;5090892;28;20131;-73
2022/06/06 01:31:21;;;;;;;3.08;2.72;;;20.80;58.70;;;;;;5089369;28;20055;-73
2022/06/06 01:33:50;;;;;;;2.88;2.58;;;21.10;62.60;;;;;;5089036;28;20044;-73
2022/06/06 01:36:17;;;;;;;4.03;3.08;;;20.80;58.70;;;;;;5099507;28;20134;-73
2022/06/06 01:38:44;;;;;;;3.08;2.85;;;21.00;58.90;;;;;;5094704;28;20088;-73
2022/06/06 01:41:11;;;;;;;2.67;2.47;;;20.80;58.70;;;;;;5089306;28;20073;-73
2022/06/06 01:43:41;;;;;;;3.40;3.10;;;20.80;58.70;;;;;;5088897;28;20055;-73
2022/06/06 01:46:10;;;;;;;3.13;2.83;;;21.10;58.90;;;;;;5105358;28;20391;-73
2022/06/06 01:48:39;;;;;;;3.20;2.80;;;18.30;60.90;;;;;;5109250;28;20139;-72
2022/06/06 01:51:08;;;;;;;3.78;2.72;;;20.70;62.20;;;;;;5109622;28;20055;-73
2022/06/06 01:53:36;;;;;;;3.55;2.88;;;21.70;62.60;;;;;;5108452;28;20134;-72
2022/06/06 01:56:03;;;;;;;2.97;2.67;;;20.60;61.90;;;;;;5092336;28;20134;-72
2022/06/06 01:58:32;;;;;;;4.57;2.60;;;20.80;58.70;;;;;;5110129;28;20040;-72
2022/06/06 02:00:59;;;;;;;3.20;2.50;;;20.60;62.80;;;;;;5106325;28;20135;-72
2022/06/06 02:03:31;;;;;;;3.05;2.75;;;20.80;62.80;;;;;;5108697;28;20050;-72
2022/06/06 02:05:57;;;;;;;3.10;2.78;;;20.80;61.70;;;;;;5109070;28;20132;-72
2022/06/06 02:08:24;;;;;;;3.03;2.45;;;20.80;58.70;;;;;;5108877;28;20065;-73
2022/06/06 02:10:51;;;;;;;2.70;2.38;;;20.70;58.60;;;;;;5108861;28;20062;-72
2022/06/06 02:13:18;;;;;;;2.80;2.60;;;20.90;62.30;;;;;;5108782;28;20132;-73
2022/06/06 02:15:44;;;;;;;3.05;2.70;;;20.60;62.10;;;;;;5109645;28;20429;-73
2022/06/06 02:18:11;;;;;;;2.55;2.35;;;20.80;62.40;;;;;;5097058;28;20486;-73
2022/06/06 02:20:39;;;;;;;2.90;2.70;;;20.50;62.00;;;;;;5088665;28;20048;-72
2022/06/06 02:23:06;;;;;;;2.50;2.30;;;20.50;62.10;;;;;;5089286;28;20048;-72
2022/06/06 02:25:33;;;;;;;2.58;2.38;;;20.70;62.00;;;;;;5088066;28;20056;-72
2022/06/06 02:28:00;;;;;;;2.65;2.45;;;21.50;62.60;;;;;;5088167;28;20445;-73
2022/06/06 02:30:33;;;;;;;2.67;2.47;;;21.70;63.30;;;;;;5087775;28;20131;-72
2022/06/06 02:33:00;;;;;;;2.72;2.50;;;20.60;62.00;;;;;;5101837;28;20134;-73
2022/06/06 02:35:27;;;;;;;2.50;2.30;;;21.60;62.30;;;;;;5087929;28;20055;-72
2022/06/06 02:37:56;;;;;;;2.58;2.38;;;20.70;58.60;;;;;;5088279;28;20052;-73
2022/06/06 02:40:23;;;;;;;2.70;2.50;;;20.80;62.10;;;;;;5088061;28;20059;-73
2022/06/06 02:42:50;;;;;;;2.92;2.25;;;20.70;58.60;;;;;;5087919;28;20558;-73
2022/06/06 02:45:17;;;;;;;2.65;2.45;;;21.30;61.10;;;;;;5087983;28;20544;-72
2022/06/06 02:47:45;;;;;;;2.80;2.45;;;20.70;58.60;;;;;;5089147;28;20079;-73
2022/06/06 02:50:11;;;;;;;2.50;2.30;;;20.70;58.60;;;;;;5093922;28;20127;-72
2022/06/06 02:52:38;;;;;;;2.40;2.17;;;20.60;58.60;;;;;;5108360;28;20052;-72
2022/06/06 02:55:09;;;;;;;2.53;2.33;;;20.80;60.60;;;;;;5107573;28;20063;-72
2022/06/06 02:57:37;;;;;;;2.50;2.30;;;20.60;58.60;;;;;;5108490;28;20055;-73
2022/06/06 03:00:06;;;;;;;2.63;2.30;;;20.80;62.60;;;;;;5108189;28;20136;-72
2022/06/06 03:02:33;;;;;;;2.65;2.45;;;20.60;58.60;;;;;;5107537;28;20494;-73
2022/06/06 03:05:00;;;;;;;2.40;2.20;;;20.40;60.40;;;;;;5107947;28;20134;-72
2022/06/06 03:07:30;;;;;;;2.33;2.13;;;20.60;62.40;;;;;;5093776;28;20052;-72
2022/06/06 03:10:02;;;;;;;2.45;2.25;;;19.80;61.30;;;;;;5093610;28;20130;-72
2022/06/06 03:12:36;;;;;;;2.40;2.20;;;20.60;58.60;;;;;;5108026;28;20055;-72
2022/06/06 03:15:14;;;;;;;2.45;2.25;;;21.30;61.30;;;;;;5107737;28;20047;-73
2022/06/06 03:20:47;;;;;;;2.75;2.40;;;20.70;62.10;;;;;;5107158;28;20055;-72
2022/06/06 03:23:38;;;;;;;2.45;2.25;;;20.80;62.40;;;;;;5102733;28;20526;-72
2022/06/06 03:26:09;;;;;;;2.42;2.22;;;20.50;58.60;;;;;;5082466;28;20064;-72
2022/06/06 03:28:41;;;;;;;2.60;2.40;;;20.60;58.70;;;;;;5096215;28;20131;-72
2022/06/06 03:31:16;;;;;;;2.65;2.42;;;20.60;58.70;;;;;;5107951;28;20090;-72
2022/06/06 03:33:46;;;;;;;2.42;2.22;;;20.30;62.50;;;;;;5107267;28;20127;-72
2022/06/06 03:36:17;;;;;;;2.15;1.95;;;20.50;62.90;;;;;;5107928;28;20047;-72
2022/06/06 03:38:46;;;;;;;2.22;2.03;;;20.80;62.10;;;;;;5107738;28;20138;-72
2022/06/06 03:41:18;;;;;;;2.40;2.20;;;20.50;59.20;;;;;;5090052;28;20135;-72
2022/06/06 03:43:50;;;;;;;2.40;2.20;;;20.60;58.60;;;;;;5088016;28;20044;-72
2022/06/06 03:46:22;;;;;;;2.15;1.95;;;20.50;58.60;;;;;;5086930;28;20087;-73
2022/06/06 03:48:54;;;;;;;2.30;2.10;;;21.30;62.70;;;;;;5087383;28;20421;-73
2022/06/06 03:51:27;;;;;;;2.35;2.15;;;20.50;62.70;;;;;;5087055;28;20130;-72
2022/06/06 03:53:56;;;;;;;2.38;2.17;;;20.50;58.60;;;;;;5087051;28;20437;-72
2022/06/06 03:56:30;;;;;;;2.50;2.30;;;20.60;62.80;;;;;;5088105;28;20044;-72
2022/06/06 03:58:58;;;;;;;2.50;2.30;;;20.50;62.70;;;;;;5087366;28;20094;-72
2022/06/06 04:01:25;;;;;;;2.30;2.10;;;20.50;58.70;;;;;;5091658;28;20071;-73
2022/06/06 04:03:52;;;;;;;2.20;2.00;;;20.60;62.50;;;;;;5107249;28;20502;-73
2022/06/06 04:06:19;;;;;;;2.10;1.88;;;20.50;58.70;;;;;;5107396;28;20101;-73
2022/06/06 04:08:46;;;;;;;2.33;2.08;;;20.50;58.70;;;;;;5107595;28;20060;-73
2022/06/06 04:11:22;;;;;;;2.40;2.20;;;21.20;62.50;;;;;;5107568;28;20131;-73
2022/06/06 04:13:54;;;;;;;2.28;2.08;;;19.80;62.10;;;;;;5091314;28;20056;-73
2022/06/06 04:16:25;;;;;;;2.17;1.98;;;20.50;58.70;;;;;;5087063;28;20127;-73
2022/06/06 04:18:59;;;;;;;2.30;2.10;;;20.40;62.10;;;;;;5087088;28;20056;-73
2022/06/06 04:21:32;;;;;;;2.10;1.90;;;21.10;62.00;;;;;;5088017;28;20047;-73
2022/06/06 04:24:07;;;;;;;2.10;1.90;;;20.30;58.60;;;;;;5107054;28;20055;-73
2022/06/06 04:26:37;;;;;;;2.50;2.30;;;19.60;62.00;;;;;;5107210;28;20075;-73
2022/06/06 04:29:06;;;;;;;2.75;2.20;;;20.40;58.70;;;;;;5107050;28;20055;-73
2022/06/06 04:31:40;;;;;;;2.20;2.00;;;20.10;62.40;;;;;;5090387;28;20062;-73
2022/06/06 04:34:10;;;;;;;2.90;2.30;;;20.40;61.70;;;;;;5109386;28;20058;-73
2022/06/06 04:36:40;;;;;;;2.30;2.10;;;20.40;58.70;;;;;;5110312;28;20134;-73
2022/06/06 04:39:11;;;;;;;2.40;2.20;;;20.80;62.80;;;;;;5110949;28;20079;-73
2022/06/06 04:41:40;;;;;;;2.38;2.17;;;20.40;58.70;;;;;;5110632;28;20050;-73
2022/06/06 04:44:12;;;;;;;2.25;2.00;;;20.30;62.20;;;;;;5110473;28;20143;-73
2022/06/06 04:46:43;;;;;;;2.30;2.10;;;20.40;58.60;;;;;;5110661;28;20074;-73
2022/06/06 04:49:10;;;;;;;2.10;1.90;;;20.40;58.60;;;;;;5110524;28;20058;-73
2022/06/06 04:51:37;;;;;;;2.35;2.15;;;19.90;62.20;;;;;;5109806;28;20047;-73
2022/06/06 04:54:04;;;;;;;2.30;2.08;;;18.50;57.60;;;;;;5089848;28;20054;-73
2022/06/06 04:56:30;;;;;;;2.25;2.05;;;20.30;62.00;;;;;;5089844;28;20074;-73
2022/06/06 04:58:59;;;;;;;2.28;2.08;;;21.20;63.00;;;;;;5089830;28;20052;-74
2022/06/06 05:01:26;;;;;;;2.25;2.05;;;20.70;58.80;;;;;;5093753;28;20555;-73
2022/06/06 05:03:54;;;;;;;2.30;1.98;;;21.30;62.70;;;;;;5109965;28;20116;-73
2022/06/06 05:06:55;;;;;;;2.40;1.98;;;20.50;61.90;;;;;;5107247;28;20087;-74
2022/06/06 05:09:39;;;;;;;2.30;2.10;;;20.40;58.60;;;;;;5098985;27;20048;-73
2022/06/06 05:12:11;;;;;;;2.53;2.33;;;20.50;62.30;;;;;;5100714;28;20127;-73
2022/06/06 05:14:59;;;;;;;2.28;2.08;;;20.40;58.70;;;;;;5100830;28;20123;-73
2022/06/06 05:17:46;;;;;;;2.40;2.03;;;20.40;58.60;;;;;;5100759;28;20040;-73
2022/06/06 05:20:36;;;;;;;2.80;2.10;;;20.40;58.60;;;;;;5099247;28;20142;-73
2022/06/06 05:23:17;;;;;;;2.40;2.20;;;21.10;62.40;;;;;;5097152;28;20091;-73
2022/06/06 05:25:52;;;;;;;2.55;2.03;;;20.40;58.60;;;;;;5088748;28;20132;-73
2022/06/06 05:28:41;;;;;;;2.30;2.10;;;20.40;58.50;;;;;;5099991;28;20046;-73
2022/06/06 05:31:14;;;;;;;2.40;2.20;;;20.50;58.60;;;;;;5069264;27;20090;-73
2022/06/06 05:33:44;;;;;;;2.30;2.10;;;20.40;62.40;;;;;;5092127;28;20048;-73
2022/06/06 05:36:28;;;;;;;2.38;2.10;;;20.50;58.50;;;;;;5088944;28;20048;-72
2022/06/06 05:39:18;;;;;;;2.40;2.20;;;20.40;57.80;;;;;;5089619;28;20550;-72
2022/06/06 05:41:56;;;;;;;2.08;1.88;;;20.70;62.10;;;;;;5088385;28;20135;-71
2022/06/06 05:44:28;;;;;;;2.38;2.17;;;20.60;62.30;;;;;;5109031;28;20079;-72
2022/06/06 05:46:57;;;;;;;2.15;1.90;;;20.50;58.40;;;;;;5109540;28;20051;-71
2022/06/06 05:49:38;;;;;;;2.10;1.90;;;20.70;62.20;;;;;;5109703;28;20142;-73
2022/06/06 05:52:14;;;;;;;2.95;2.13;;;20.60;62.10;;;;;;5109715;28;20055;-71
2022/06/06 05:55:03;;;;;;;2.70;2.22;;;20.60;62.80;;;;;;5109113;28;20096;-72
2022/06/06 05:57:38;;;;;;;2.30;2.08;;;20.60;58.20;;;;;;5110692;28;20088;-72
2022/06/06 06:00:09;;;;;;;2.60;2.20;;;20.70;62.40;;;;;;5108356;28;20142;-72
2022/06/06 06:02:46;;;;;;;2.47;2.20;;;20.60;58.30;;;;;;5108777;28;20504;-72
2022/06/06 06:05:15;;;;;;;2.58;2.38;;;20.60;60.50;;;;;;5109093;28;20075;-72
2022/06/06 06:07:52;;;;;;;2.45;2.10;;;20.70;58.30;;;;;;5109173;28;20573;-73
2022/06/06 06:10:22;;;;;;;2.20;2.00;;;20.40;61.40;;;;;;5108670;28;20051;-73
2022/06/06 06:13:21;;;;;;;2.50;2.30;;;21.70;61.80;;;;;;5108793;28;20143;-72
2022/06/06 06:15:48;;;;;;;2.75;2.08;;;20.90;61.70;;;;;;5108279;28;20050;-73
2022/06/06 06:18:17;;;;;;;2.50;2.25;;;20.70;61.90;;;;;;5109084;28;20108;-73
2022/06/06 06:20:46;;;;;;;2.63;2.28;;;21.10;58.50;;;;;;5108531;28;20131;-72
2022/06/06 06:23:15;;;;;;;2.35;2.15;;;20.70;58.30;;;;;;5108611;28;20052;-72
2022/06/06 06:25:42;;;;;;;2.78;2.10;;;20.70;58.30;;;;;;5108942;28;20131;-72
2022/06/06 06:28:10;;;;;;;2.63;2.10;;;20.60;61.50;;;;;;5108630;28;20126;-72
2022/06/06 06:30:43;;;;;;;2.38;2.08;;;19.80;60.80;;;;;;5104945;28;20056;-72
2022/06/06 06:33:18;;;;;;;2.35;2.13;;;20.80;62.70;;;;;;5088008;28;20146;-73
2022/06/06 06:35:50;;;;;;;2.90;2.28;;;21.20;62.50;;;;;;5088327;28;20553;-72
2022/06/06 06:38:29;;;;;;;2.83;2.22;;;20.90;61.50;;;;;;5088357;28;20051;-72
2022/06/06 06:40:58;;;;;;;2.40;2.15;;;20.70;58.20;;;;;;5088270;28;20052;-72
2022/06/06 06:43:37;;;;;;;2.47;2.28;;;20.70;58.20;;;;;;5088104;28;20737;-72
2022/06/06 06:46:14;;;;;;;2.65;2.20;;;20.70;61.90;;;;;;5088091;28;20127;-72
2022/06/06 06:48:44;;;;;;;2.20;2.00;;;20.70;58.10;;;;;;5107063;28;20052;-73
2022/06/06 06:51:13;;;;;;;2.70;2.30;;;20.70;58.10;;;;;;5109356;28;20073;-73
2022/06/06 06:53:59;;;;;;;2.30;2.08;;;19.80;61.90;;;;;;5109125;28;20082;-73
2022/06/06 06:56:47;;;;;;;3.08;2.35;;;20.50;61.80;;;;;;5103356;28;20050;-73
2022/06/06 06:59:16;;;;;;;4.22;2.17;;;20.70;58.20;;;;;;5093689;28;20379;-72
2022/06/06 07:08:32;;;;;;;4.50;2.40;;;20.70;58.30;;;;;;5093844;28;20048;-71
2022/06/06 07:10:15;;;;;;;3.72;2.60;;;20.70;62.50;;;;;;5112071;28;20055;-72
2022/06/06 07:13:11;;;;;;;3.38;2.38;;;20.70;58.60;;;;;;5105121;27;20082;-73
2022/06/06 07:15:41;;;;;;;3.08;2.50;;;20.80;58.50;;;;;;5108063;28;20533;-73
2022/06/06 07:18:09;;;;;;;3.22;2.33;;;19.80;61.30;;;;;;5107806;28;20044;-73
2022/06/06 07:20:36;;;;;;;2.65;2.28;;;19.70;61.80;;;;;;5107815;28;20134;-73
2022/06/06 07:23:05;;;;;;;5.05;2.13;;;21.10;61.90;;;;;;5107719;28;20060;-72
2022/06/06 07:25:38;;;;;;;2.30;2.10;;;21.30;62.50;;;;;;5089314;28;20155;-72
2022/06/06 07:28:06;;;;;;;3.70;2.40;;;21.90;61.30;;;;;;5106177;28;20047;-72
2022/06/06 07:30:35;;;;;;;2.63;2.28;;;21.30;57.70;;;;;;5112954;28;20420;-72
2022/06/06 07:33:18;;;;;;;2.30;2.10;;;21.40;57.60;;;;;;5111188;28;20126;-72
2022/06/06 07:35:47;;;;;;;2.80;2.28;;;21.40;61.30;;;;;;5114402;28;20047;-72
2022/06/06 07:38:22;;;;;;;2.20;2.00;;;21.40;57.40;;;;;;5128323;28;20065;-72
2022/06/06 07:40:59;;;;;;;2.60;2.10;;;21.30;61.30;;;;;;5128397;28;20097;-72
2022/06/06 07:43:33;;;;;;;2.90;2.10;;;21.60;60.90;;;;;;5129303;28;20130;-72
2022/06/06 07:46:03;;;;;;;2.75;2.30;;;21.20;60.50;;;;;;5128465;28;20129;-73
2022/06/06 07:48:50;;;;;;;2.03;1.83;;;21.60;60.80;;;;;;5105488;28;20044;-72
2022/06/06 07:51:20;;;;;;;2.50;2.20;;;21.70;57.10;;;;;;5073007;28;20143;-71
2022/06/06 07:53:51;;;;;;;2.80;2.20;;;21.60;56.90;;;;;;5087094;28;20051;-71
2022/06/06 07:56:25;;;;;;;3.65;2.67;;;21.80;61.20;;;;;;5087031;28;20047;-71
2022/06/06 07:59:01;;;;;;;4.85;3.15;;;21.60;57.10;;;;;;5091616;28;20052;-71
2022/06/06 08:01:32;;;;;;;5.85;2.97;;;21.50;60.70;;;;;;5098082;28;20132;-71
2022/06/06 08:04:04;;;;;;;4.32;2.67;;;21.70;61.50;;;;;;5096027;28;20132;-71
2022/06/06 08:06:37;;;;;;;5.90;2.53;;;19.30;56.00;;;;;;5086945;28;20056;-71
2022/06/06 08:09:14;;;;;;;3.45;2.42;;;21.50;61.00;;;;;;5099269;28;20463;-71
2022/06/06 08:11:53;;;;;;;3.92;2.83;;;21.10;61.50;;;;;;5101801;28;20083;-71
2022/06/06 08:14:25;;;;;;;3.00;2.60;;;21.60;57.40;;;;;;5102237;28;20127;-71
2022/06/06 08:16:58;;;;;;;3.25;2.75;;;21.40;60.50;;;;;;5104802;28;20048;-71
2022/06/06 08:19:33;;;;;;;3.50;2.42;;;21.40;57.30;;;;;;5101890;28;20044;-71
2022/06/06 08:22:00;;;;;;;4.50;2.80;;;21.20;61.10;;;;;;5097025;28;20101;-71
2022/06/06 08:24:28;;;;;;;4.97;2.95;;;21.90;61.70;;;;;;5100722;28;20090;-71
2022/06/06 08:26:56;;;;;;;3.63;2.80;;;21.00;61.00;;;;;;5102336;28;20127;-71
2022/06/06 08:29:23;;;;;;;5.22;3.00;;;21.30;60.90;;;;;;5095963;28;20079;-71
2022/06/06 08:31:50;;;;;;;4.30;2.72;;;21.30;57.40;;;;;;5089612;28;20051;-71
2022/06/06 08:34:17;;;;;;;4.60;2.85;;;21.30;60.90;;;;;;5105128;28;20091;-71
2022/06/06 08:36:59;;;;;;;6.18;3.00;;;22.50;62.10;;;;;;5105725;28;20083;-71
2022/06/06 08:39:28;;;;;;;4.50;3.00;;;21.30;57.40;;;;;;5110416;28;20673;-72
2022/06/06 08:42:18;;;;;;;4.22;2.90;;;21.10;61.70;;;;;;5110867;28;20053;-71
2022/06/06 08:44:52;;;;;;;5.65;2.90;;;20.70;60.70;;;;;;5100564;28;20039;-71
2022/06/06 08:47:28;;;;;;;4.13;2.85;;;21.20;57.60;;;;;;5090459;28;20133;-72
2022/06/06 08:53:13;;;;;;;4.38;3.25;;;21.10;61.60;;;;;;5090473;28;20658;-71
2022/06/06 08:55:57;;;;;;;5.15;3.30;;;21.20;57.70;;;;;;5087089;28;20048;-71
2022/06/06 08:58:47;;;;;;;7.22;3.20;;;21.20;57.90;;;;;;5099421;28;20138;-71
2022/06/06 09:01:19;;;;;;;9.55;3.40;;;21.20;57.70;;;;;;5096325;28;20135;-72
2022/06/06 09:04:07;;;;;;;6.15;3.20;;;21.30;57.60;;;;;;5110123;28;20071;-71
2022/06/06 09:06:57;;;;;;;6.00;3.00;;;20.80;60.50;;;;;;5110146;28;20417;-72
2022/06/06 09:09:55;;;;;;;5.30;3.13;;;21.50;57.30;;;;;;5111565;27;20058;-72
2022/06/06 09:12:58;;;;;;;5.68;2.83;;;21.60;57.30;;;;;;5121298;27;20142;-71
2022/06/06 09:15:57;;;;;;;4.97;3.10;;;21.60;57.30;;;;;;5116018;27;20059;-71
2022/06/06 09:19:00;;;;;;;5.10;3.38;;;21.60;57.20;;;;;;5109159;28;20130;-71
2022/06/06 09:21:58;;;;;;;7.53;3.40;;;21.70;57.10;;;;;;5111383;28;20086;-71
2022/06/06 09:24:50;;;;;;;4.18;2.92;;;21.70;56.90;;;;;;5109719;28;20051;-71
2022/06/06 09:27:49;;;;;;;5.30;3.20;;;21.70;61.20;;;;;;5110173;28;20526;-71
2022/06/06 09:30:21;;;;;;;3.58;2.90;;;22.10;60.80;;;;;;5069451;28;20134;-71
2022/06/06 09:33:13;;;;;;;5.80;3.13;;;21.90;56.60;;;;;;5109376;28;20143;-71
2022/06/06 09:35:42;;;;;;;4.95;3.03;;;21.90;56.40;;;;;;5111186;28;20075;-71
2022/06/06 09:38:18;;;;;;;5.00;2.63;;;22.00;56.40;;;;;;5109943;28;20087;-71
2022/06/06 09:40:58;;;;;;;5.50;3.00;;;22.00;56.30;;;;;;5110011;28;20555;-71
2022/06/06 09:43:33;;;;;;;4.35;2.90;;;23.10;61.20;;;;;;5109550;28;20083;-71
2022/06/06 09:46:18;;;;;;;3.17;2.70;;;22.10;56.30;;;;;;5109699;28;20052;-71
2022/06/06 09:49:21;;;;;;;4.32;2.95;;;22.10;60.70;;;;;;5100711;27;20119;-71
2022/06/06 09:52:11;;;;;;;3.28;2.60;;;22.10;56.20;;;;;;5088769;28;20052;-71
2022/06/06 10:01:26;;;;;;;3.58;2.60;;;22.10;56.10;;;;;;5089350;28;20545;-71
2022/06/06 10:04:40;;;;;;;3.45;2.33;;;21.70;59.90;;;;;;5089694;28;20052;-71
2022/06/06 10:07:43;;;;;;;3.35;2.28;;;21.80;60.20;;;;;;5032284;28;20045;-71
2022/06/06 10:10:40;;;;;;;3.70;2.47;;;22.20;59.60;;;;;;5096304;28;20079;-71
2022/06/06 10:13:11;;;;;;;3.00;2.50;;;22.10;56.10;;;;;;5091859;28;20542;-72
2022/06/06 10:15:59;;;;;;;3.08;2.40;;;22.20;56.20;;;;;;5108928;28;20051;-72
2022/06/06 10:18:33;;;;;;;5.43;2.97;;;22.20;56.20;;;;;;5099354;28;20047;-72
2022/06/06 10:21:22;;;;;;;6.03;2.40;;;22.20;56.30;;;;;;5096732;28;20084;-72
2022/06/06 10:23:57;;;;;;;5.15;2.20;;;22.10;56.30;;;;;;5098028;28;20567;-72
2022/06/06 10:26:32;;;;;;;6.88;2.50;;;22.10;55.90;;;;;;5099306;28;20083;-72
2022/06/06 10:29:19;;;;;;;4.80;2.63;;;22.10;56.40;;;;;;5098024;28;20051;-72
2022/06/06 10:32:01;;;;;;;3.90;2.10;;;22.10;60.00;;;;;;5101492;28;20135;-72
2022/06/06 10:34:37;;;;;;;4.40;2.53;;;22.10;56.40;;;;;;5108530;28;20087;-71
2022/06/06 10:37:26;;;;;;;3.13;2.30;;;22.10;57.10;;;;;;5102134;28;20126;-72
2022/06/06 10:40:06;;;;;;;4.85;2.40;;;22.80;60.90;;;;;;5104774;28;20138;-71
2022/06/06 10:42:44;;;;;;;7.05;2.42;;;22.10;56.50;;;;;;5106941;28;20513;-72
2022/06/06 10:45:24;;;;;;;7.68;2.28;;;22.00;58.70;;;;;;5108505;28;20098;-71
2022/06/06 10:48:13;;;;;;;10.05;2.30;;;22.00;56.60;;;;;;5108523;28;20696;-71
2022/06/06 10:53:44;;;;;;;4.88;2.13;;;21.90;60.00;;;;;;5128887;27;20530;-71
2022/06/06 10:56:34;;;;;;;10.88;2.35;;;22.10;60.30;;;;;;5128876;27;20051;-71
2022/06/06 10:59:39;;;;;;;3.08;2.05;;;21.50;60.20;;;;;;5070671;28;20052;-71
2022/06/06 11:02:45;;;;;;;6.05;1.88;;;21.90;56.60;;;;;;5097638;28;20056;-70
2022/06/06 11:05:32;;;;;;;5.50;2.10;;;21.90;58.70;;;;;;5107817;28;20397;-70
2022/06/06 11:08:11;;;;;;;4.18;2.10;;;21.90;60.60;;;;;;5108242;28;20528;-70
2022/06/06 11:10:47;;;;;;;3.45;1.92;;;21.80;56.80;;;;;;5107781;28;20067;-72
2022/06/06 11:13:23;;;;;;;4.32;1.90;;;21.80;56.90;;;;;;5108401;28;20044;-72
2022/06/06 11:16:06;;;;;;;2.88;2.05;;;21.80;61.10;;;;;;5094795;28;20143;-72
2022/06/06 11:18:56;;;;;;;3.80;2.03;;;21.80;56.90;;;;;;5109157;28;20051;-72
2022/06/06 11:21:46;;;;;;;3.55;2.08;;;21.80;57.40;;;;;;5107944;28;20058;-71
2022/06/06 11:24:18;;;;;;;4.13;1.92;;;21.80;56.80;;;;;;5108083;28;20509;-71
2022/06/06 11:27:03;;;;;;;3.67;2.00;;;21.80;56.90;;;;;;5108049;28;20486;-72
2022/06/06 11:29:55;;;;;;;5.22;1.90;;;20.70;59.20;;;;;;5087736;28;20059;-72
2022/06/06 11:32:51;;;;;;;2.70;2.00;;;21.70;56.90;;;;;;5087710;28;20134;-72
2022/06/06 11:35:40;;;;;;;5.88;2.53;;;21.30;59.10;;;;;;5088770;28;20072;-72
2022/06/06 11:38:52;;;;;;;3.10;2.10;;;21.60;60.70;;;;;;5088571;28;20483;-72
2022/06/06 11:41:41;;;;;;;2.03;1.83;;;21.70;57.10;;;;;;5088551;28;20526;-72
2022/06/06 11:44:23;;;;;;;3.15;2.13;;;21.70;60.60;;;;;;5090907;28;20143;-71
2022/06/06 11:47:10;;;;;;;3.72;2.10;;;21.50;61.30;;;;;;5091586;28;20123;-72
2022/06/06 11:49:56;;;;;;;2.28;1.80;;;21.60;57.20;;;;;;5091413;28;20131;-72
2022/06/06 11:52:53;;;;;;;2.28;1.75;;;21.60;57.20;;;;;;5091554;28;20130;-71
2022/06/06 11:55:41;;;;;;;2.80;1.80;;;21.50;59.30;;;;;;5103585;28;20059;-71
2022/06/06 11:58:37;;;;;;;2.55;1.80;;;21.50;57.10;;;;;;5096815;28;20102;-72
2022/06/06 12:01:39;;;;;;;3.22;1.80;;;21.30;61.80;;;;;;5012230;28;20085;-72
2022/06/06 12:04:19;;;;;;;2.40;1.85;;;21.50;57.10;;;;;;5094592;28;20135;-72
2022/06/06 12:07:22;;;;;;;5.93;1.95;;;21.50;57.30;;;;;;5105864;28;20538;-71
2022/06/06 12:09:54;;;;;;;2.75;1.90;;;21.40;60.40;;;;;;5095610;28;20090;-71
2022/06/06 12:13:21;;;;;;;3.10;1.70;;;21.50;61.00;;;;;;5108071;28;20044;-71
2022/06/06 12:16:05;;;;;;;;;;;21.50;57.10;;;;;;5068088;28;20051;-71
2022/06/06 12:19:03;;;;;;;2.03;1.40;;;21.40;57.20;;;;;;5111419;28;19974;-71
2022/06/06 12:21:41;;;;;;;2.10;1.70;;;21.40;57.30;;;;;;5110943;28;20057;-73
2022/06/06 12:24:44;;;;;;;3.65;1.80;;;21.50;57.30;;;;;;5110765;28;20059;-73
2022/06/06 12:27:19;;;;;;;2.67;1.70;;;22.40;61.20;;;;;;5112631;28;20123;-71
2022/06/06 12:30:22;;;;;;;2.15;1.60;;;21.50;57.10;;;;;;5105171;28;20052;-71
2022/06/06 12:32:54;;;;;;;1.70;1.45;;;21.60;57.10;;;;;;5098371;28;20647;-71
2022/06/06 12:35:24;;;;;;;2.03;1.50;;;21.40;59.70;;;;;;5110325;28;20097;-72
2022/06/06 12:37:58;;;;;;;1.90;1.60;;;21.60;60.60;;;;;;5111002;28;20094;-72
2022/06/06 12:40:29;;;;;;;1.55;1.42;;;21.60;57.10;;;;;;5111031;28;20138;-71
2022/06/06 12:43:00;;;;;;;2.67;1.77;;;21.60;61.00;;;;;;5093751;28;20048;-73
2022/06/06 12:45:42;;;;;;;3.78;1.60;;;21.00;59.80;;;;;;5110564;28;20058;-72
2022/06/06 12:48:40;;;;;;;2.17;1.50;;;22.20;61.00;;;;;;5101812;28;20146;-73
2022/06/06 12:51:14;;;;;;;1.75;1.45;;;21.60;56.90;;;;;;5087618;27;20079;-72
2022/06/06 12:53:54;;;;;;;2.33;1.70;;;21.60;61.10;;;;;;5110731;28;20532;-72
2022/06/06 12:56:25;;;;;;;1.80;1.30;;;21.60;56.90;;;;;;5110349;28;20055;-72
2022/06/06 12:59:04;;;;;;;3.10;1.50;;;21.70;56.90;;;;;;5110264;28;20484;-72
2022/06/06 13:01:45;;;;;;;1.95;1.30;;;21.70;61.00;;;;;;5105269;28;20040;-71
2022/06/06 13:04:34;;;;;;;1.40;1.30;;;21.70;56.80;;;;;;5089768;28;20410;-73
2022/06/06 13:07:10;;;;;;;2.17;1.50;;;21.70;56.80;;;;;;5090338;28;20056;-73
2022/06/06 13:09:55;;;;;;;1.65;1.30;;;21.70;56.80;;;;;;5097838;27;20078;-73
2022/06/06 13:12:26;;;;;;;;;;;21.70;56.80;;;;;;5132166;27;20055;-74
2022/06/06 13:15:10;;;;;;;1.90;1.30;;;21.70;56.80;;;;;;5130779;27;20408;-74
2022/06/06 13:17:43;;;;;;;2.63;1.33;;;21.60;60.30;;;;;;5130581;27;20066;-74
2022/06/06 13:20:21;;;;;;;2.05;1.60;;;21.70;59.90;;;;;;5130797;27;20097;-72
2022/06/06 13:22:59;;;;;;;2.00;1.40;;;21.90;60.20;;;;;;5112993;27;20486;-74
2022/06/06 13:25:29;;;;;;;2.08;1.50;;;21.80;56.90;;;;;;5109978;28;20052;-72
2022/06/06 13:27:59;;;;;;;2.42;1.30;;;21.90;61.10;;;;;;5109846;28;20048;-73
2022/06/06 13:30:27;;;;;;;2.28;1.40;;;21.60;61.20;;;;;;5111416;28;20561;-73
2022/06/06 13:32:58;;;;;;;2.00;1.50;;;21.80;57.30;;;;;;5109148;28;20469;-73
2022/06/06 13:35:30;;;;;;;1.40;1.20;;;21.70;60.80;;;;;;5109485;28;20078;-72
2022/06/06 13:38:07;;;;;;;2.90;1.60;;;21.80;57.30;;;;;;5101078;28;20131;-71
2022/06/06 13:40:41;;;;;;;3.80;1.48;;;21.80;57.10;;;;;;5107772;28;20472;-73
2022/06/06 13:43:28;;;;;;;3.15;1.67;;;22.70;61.00;;;;;;5108872;28;20085;-72
2022/06/06 13:46:02;;;;;;;2.25;1.48;;;21.80;57.10;;;;;;5109347;28;20078;-71
2022/06/06 13:48:45;;;;;;;2.90;1.37;;;21.80;59.30;;;;;;5109883;28;20126;-72
2022/06/06 13:51:21;;;;;;;2.28;1.55;;;21.80;57.30;;;;;;5110870;28;20142;-72
2022/06/06 13:54:03;;;;;;;4.80;1.40;;;22.00;60.50;;;;;;5108365;28;20079;-72
2022/06/06 13:56:53;;;;;;;2.63;1.40;;;21.70;60.70;;;;;;5098416;28;20115;-72
2022/06/06 13:59:32;;;;;;;4.53;1.30;;;21.80;60.40;;;;;;5082456;28;20067;-72
2022/06/06 14:02:02;;;;;;;3.25;1.40;;;21.90;57.40;;;;;;5097570;28;20131;-72
2022/06/06 14:04:43;;;;;;;2.03;1.50;;;21.80;57.30;;;;;;5108981;28;20135;-72